Time;durP1;ratioP1;P1;durP2;ratioP2;P2;SDS_P1;SDS_P2;PMS_P1;PMS_P2;Temp;Humidity;BMP_temperature;BMP_pressure;BME280_temperature;BME280_humidity;BME280_pressure;Samples;Min_cycle;Max_cycle;Signal;HPM_P1;HPM_P2
2020/12/02 00:00:40;;;;;;;25.25;10.18;;;1.00;99.90;;;;;;2056588;28;20683;-60
2020/12/02 00:01:41;;;;;;;15.25;8.48;;;1.00;99.90;;;;;;2056427;28;20664;-59
2020/12/02 00:02:54;;;;;;;17.08;8.82;;;1.00;99.90;;;;;;2055768;28;20182;-61
2020/12/02 00:04:02;;;;;;;21.63;9.43;;;1.00;99.90;;;;;;2056201;28;20159;-59
2020/12/02 00:05:11;;;;;;;42.95;11.77;;;1.00;99.90;;;;;;2055893;28;20197;-59
2020/12/02 00:06:13;;;;;;;22.45;9.63;;;1.10;99.90;;;;;;2055982;28;20178;-59
2020/12/02 00:07:15;;;;;;;72.97;14.60;;;1.00;99.90;;;;;;2056367;28;20313;-59
2020/12/02 00:08:22;;;;;;;52.25;13.70;;;1.00;99.90;;;;;;2056616;28;20670;-59
2020/12/02 00:09:24;;;;;;;64.97;13.63;;;1.00;99.90;;;;;;2056570;28;20179;-60
2020/12/02 00:10:26;;;;;;;74.05;14.85;;;1.10;99.90;;;;;;2056645;28;20182;-59
2020/12/02 00:11:28;;;;;;;34.78;11.82;;;1.10;99.90;;;;;;2056310;28;20202;-58
2020/12/02 00:12:29;;;;;;;30.52;10.18;;;1.00;99.90;;;;;;2056605;28;20269;-60
2020/12/02 00:13:35;;;;;;;27.37;9.73;;;1.00;99.90;;;;;;2056470;28;20193;-59
2020/12/02 00:14:36;;;;;;;23.95;9.38;;;1.00;99.90;;;;;;2056535;28;20182;-59
2020/12/02 00:15:37;;;;;;;25.23;9.67;;;1.00;99.90;;;;;;2056547;28;20182;-60
2020/12/02 00:16:37;;;;;;;23.92;9.55;;;0.90;99.90;;;;;;2056355;28;20599;-59
2020/12/02 00:17:38;;;;;;;38.27;12.03;;;0.90;99.90;;;;;;2056477;28;20183;-60
2020/12/02 00:18:40;;;;;;;27.43;9.63;;;0.90;99.90;;;;;;2056490;28;20187;-59
2020/12/02 00:19:40;;;;;;;78.30;14.35;;;1.00;99.90;;;;;;2056483;28;20225;-60
2020/12/02 00:20:41;;;;;;;76.27;14.63;;;1.00;99.90;;;;;;2056440;28;20179;-60
2020/12/02 00:22:00;;;;;;;57.43;13.70;;;0.90;99.90;;;;;;2056403;28;20596;-61
2020/12/02 00:23:01;;;;;;;38.65;10.82;;;1.00;99.90;;;;;;2056466;28;20246;-58
2020/12/02 00:24:02;;;;;;;51.78;11.32;;;0.90;99.90;;;;;;2056455;28;20651;-59
2020/12/02 00:25:05;;;;;;;61.17;12.60;;;0.90;99.90;;;;;;2056525;28;20178;-60
2020/12/02 00:26:07;;;;;;;119.13;17.42;;;0.90;99.90;;;;;;2056435;28;20190;-59
2020/12/02 00:27:15;;;;;;;22.35;8.20;;;1.10;99.90;;;;;;2056436;28;20198;-60
2020/12/02 00:28:16;;;;;;;51.80;12.48;;;1.00;99.90;;;;;;2056566;28;20262;-59
2020/12/02 00:29:16;;;;;;;21.23;9.57;;;1.00;99.90;;;;;;2056189;28;20179;-60
2020/12/02 00:30:18;;;;;;;23.07;9.33;;;1.00;99.90;;;;;;2056499;28;20429;-60
2020/12/02 00:31:20;;;;;;;87.13;13.93;;;1.00;99.90;;;;;;2056150;28;20298;-58
2020/12/02 00:32:32;;;;;;;61.35;11.98;;;1.00;99.90;;;;;;2056523;28;20684;-59
2020/12/02 00:33:32;;;;;;;101.88;13.25;;;1.00;99.90;;;;;;2056580;28;20266;-59
2020/12/02 00:34:33;;;;;;;67.00;11.33;;;1.00;99.90;;;;;;2057525;28;20186;-59
2020/12/02 00:35:35;;;;;;;127.60;18.60;;;1.00;99.90;;;;;;2056968;28;20179;-66
2020/12/02 00:36:38;;;;;;;79.10;12.77;;;1.00;99.90;;;;;;2057134;28;20220;-59
2020/12/02 00:37:39;;;;;;;85.18;15.80;;;0.90;99.90;;;;;;2056810;28;20278;-59
2020/12/02 00:38:39;;;;;;;68.00;13.10;;;0.90;99.90;;;;;;2056531;28;20179;-60
2020/12/02 00:39:40;;;;;;;52.00;11.27;;;0.90;99.90;;;;;;2056502;28;20187;-59
2020/12/02 00:40:45;;;;;;;75.63;13.60;;;1.00;99.90;;;;;;2056415;28;20674;-60
2020/12/02 00:41:47;;;;;;;49.80;11.75;;;0.90;99.90;;;;;;2056367;28;20186;-60
2020/12/02 00:42:49;;;;;;;74.88;14.80;;;0.90;99.90;;;;;;2056590;28;20190;-58
2020/12/02 00:43:49;;;;;;;60.33;13.15;;;0.90;99.90;;;;;;2056428;28;20175;-60
2020/12/02 00:44:51;;;;;;;83.30;13.03;;;0.90;99.90;;;;;;2056491;28;20640;-58
2020/12/02 00:45:58;;;;;;;113.38;15.40;;;0.90;99.90;;;;;;2056385;28;20193;-60
2020/12/02 00:47:01;;;;;;;52.90;13.38;;;0.90;99.90;;;;;;2056449;28;20206;-59
2020/12/02 00:48:01;;;;;;;87.00;13.80;;;0.80;99.90;;;;;;2055785;28;20179;-60
2020/12/02 00:49:04;;;;;;;142.20;18.83;;;0.80;99.90;;;;;;2048027;28;20188;-60
2020/12/02 00:50:08;;;;;;;108.28;15.68;;;0.90;99.90;;;;;;2055937;28;20175;-61
2020/12/02 00:51:10;;;;;;;128.25;14.65;;;0.90;99.90;;;;;;2056431;28;20215;-63
2020/12/02 00:52:10;;;;;;;62.83;14.80;;;0.90;99.90;;;;;;2056542;28;20201;-58
2020/12/02 00:53:27;;;;;;;150.77;20.43;;;0.90;99.90;;;;;;2056497;28;20179;-60
2020/12/02 00:54:27;;;;;;;76.20;14.55;;;0.90;99.90;;;;;;2056296;28;20186;-59
2020/12/02 00:55:28;;;;;;;51.43;11.30;;;1.00;99.90;;;;;;2056452;28;20179;-62
2020/12/02 00:56:32;;;;;;;93.40;16.17;;;0.90;99.90;;;;;;2056229;28;20649;-60
2020/12/02 00:57:35;;;;;;;45.35;11.30;;;0.90;99.90;;;;;;2055754;28;20205;-61
2020/12/02 00:58:49;;;;;;;44.58;12.20;;;0.90;99.90;;;;;;2057013;28;20270;-60
2020/12/02 00:59:57;;;;;;;95.38;17.58;;;0.90;99.90;;;;;;2057984;28;20170;-60
2020/12/02 01:01:04;;;;;;;55.38;13.07;;;0.90;99.90;;;;;;2057213;28;20261;-61
2020/12/02 01:02:10;;;;;;;60.90;13.10;;;0.90;99.90;;;;;;2057393;28;20163;-61
2020/12/02 01:03:29;;;;;;;88.90;15.45;;;0.90;99.90;;;;;;2057514;28;20191;-61
2020/12/02 01:04:30;;;;;;;77.22;16.55;;;0.80;99.90;;;;;;2058030;28;20179;-59
2020/12/02 01:05:31;;;;;;;88.35;17.55;;;0.90;99.90;;;;;;2057877;28;20186;-61
2020/12/02 01:06:32;;;;;;;47.22;13.60;;;1.00;99.90;;;;;;2057947;28;20229;-62
2020/12/02 01:07:34;;;;;;;39.03;13.25;;;1.00;99.90;;;;;;2057279;28;20222;-60
2020/12/02 01:08:42;;;;;;;38.72;12.15;;;1.00;99.90;;;;;;2057322;28;20192;-60
2020/12/02 01:09:43;;;;;;;81.97;16.35;;;1.00;99.90;;;;;;2057913;28;20244;-59
2020/12/02 01:10:48;;;;;;;26.50;10.40;;;1.00;99.90;;;;;;2057816;28;20206;-62
2020/12/02 01:11:51;;;;;;;49.95;12.98;;;1.00;99.90;;;;;;2057068;28;20194;-61
2020/12/02 01:12:52;;;;;;;49.97;14.32;;;1.00;99.90;;;;;;2057322;28;20175;-62
2020/12/02 01:14:00;;;;;;;95.00;18.03;;;1.00;99.90;;;;;;2057719;28;20213;-59
2020/12/02 01:15:01;;;;;;;47.33;13.55;;;1.00;99.90;;;;;;2057908;28;20170;-62
2020/12/02 01:16:13;;;;;;;51.70;14.00;;;1.00;99.90;;;;;;2057932;28;20737;-61
2020/12/02 01:17:15;;;;;;;70.07;16.02;;;1.00;99.90;;;;;;2057665;28;20175;-61
2020/12/02 01:18:22;;;;;;;32.55;12.07;;;1.10;99.90;;;;;;2057833;28;20187;-61
2020/12/02 01:19:34;;;;;;;30.95;11.70;;;1.00;99.90;;;;;;2057831;28;20211;-61
2020/12/02 01:20:35;;;;;;;35.13;11.55;;;1.00;99.90;;;;;;2057944;28;20182;-58
2020/12/02 01:21:48;;;;;;;38.33;12.37;;;1.00;99.90;;;;;;2057436;28;20645;-61
2020/12/02 01:22:49;;;;;;;38.97;11.57;;;1.00;99.90;;;;;;2057251;28;20225;-61
2020/12/02 01:23:57;;;;;;;24.13;10.53;;;0.90;99.90;;;;;;2057165;28;20602;-61
2020/12/02 01:25:12;;;;;;;32.13;10.85;;;0.90;99.90;;;;;;2057780;28;20171;-61
2020/12/02 01:26:15;;;;;;;59.40;15.05;;;1.00;99.90;;;;;;2057126;28;20270;-61
2020/12/02 01:27:29;;;;;;;48.67;14.65;;;1.00;99.90;;;;;;2057157;28;20182;-62
2020/12/02 01:28:32;;;;;;;48.55;15.32;;;1.00;99.90;;;;;;2057282;28;20214;-61
2020/12/02 01:29:32;;;;;;;54.25;16.42;;;1.00;99.90;;;;;;2057222;28;20648;-60
2020/12/02 01:30:38;;;;;;;37.60;11.67;;;1.00;99.90;;;;;;2056967;28;20201;-61
2020/12/02 01:31:40;;;;;;;37.17;12.75;;;1.00;99.90;;;;;;2056886;28;20178;-61
2020/12/02 01:32:43;;;;;;;57.45;16.00;;;1.00;99.90;;;;;;2057131;28;20712;-61
2020/12/02 01:33:43;;;;;;;38.00;13.27;;;1.00;99.90;;;;;;2064905;28;20316;-61
2020/12/02 01:34:51;;;;;;;35.30;12.23;;;1.00;99.90;;;;;;2057622;28;20190;-62
2020/12/02 01:35:52;;;;;;;41.08;14.15;;;1.00;99.90;;;;;;2057561;28;20281;-61
2020/12/02 01:37:37;;;;;;;39.65;12.43;;;1.00;99.90;;;;;;2057604;28;20285;-61
2020/12/02 01:38:40;;;;;;;120.55;16.65;;;1.00;99.90;;;;;;2057119;28;20202;-60
2020/12/02 01:39:48;;;;;;;50.05;13.85;;;1.00;99.90;;;;;;2057831;28;20296;-61
2020/12/02 01:40:52;;;;;;;91.45;17.70;;;1.10;99.90;;;;;;2056849;28;20721;-62
2020/12/02 01:41:53;;;;;;;47.63;15.02;;;1.00;99.90;;;;;;2056999;28;20277;-59
2020/12/02 01:43:00;;;;;;;84.43;14.47;;;1.10;99.90;;;;;;2065040;28;20170;-61
2020/12/02 01:44:01;;;;;;;91.95;16.02;;;1.00;99.90;;;;;;2064103;28;20544;-62
2020/12/02 01:45:15;;;;;;;88.63;14.70;;;0.90;99.90;;;;;;2057504;28;20382;-61
2020/12/02 01:46:31;;;;;;;98.53;15.45;;;1.00;99.90;;;;;;2057397;28;20601;-61
2020/12/02 01:47:54;;;;;;;57.92;14.07;;;1.00;99.90;;;;;;2057500;28;20639;-61
2020/12/02 01:49:24;;;;;;;114.30;19.13;;;0.90;99.90;;;;;;2064983;28;20189;-61
2020/12/02 01:50:58;;;;;;;198.40;23.67;;;1.00;99.90;;;;;;2048931;29;20245;-62
2020/12/02 01:52:31;;;;;;;141.38;22.23;;;1.10;99.90;;;;;;2049822;28;20193;-61
2020/12/02 01:54:14;;;;;;;136.18;19.33;;;1.00;99.90;;;;;;2061316;28;20193;-62
2020/12/02 01:55:24;;;;;;;40.05;11.82;;;1.00;99.90;;;;;;2056816;28;20176;-61
2020/12/02 01:57:03;;;;;;;171.65;20.75;;;1.00;99.90;;;;;;2056912;28;20720;-61
2020/12/02 01:58:16;;;;;;;86.00;15.38;;;1.00;99.90;;;;;;2056814;28;20170;-61
2020/12/02 02:00:08;;;;;;;81.30;13.77;;;0.90;99.90;;;;;;2056960;28;20696;-61
2020/12/02 02:01:21;;;;;;;59.60;13.90;;;0.90;99.90;;;;;;2057171;28;20526;-61
2020/12/02 02:02:47;;;;;;;45.17;11.52;;;0.90;99.90;;;;;;2057656;28;20189;-61
2020/12/02 02:03:50;;;;;;;98.88;15.45;;;0.90;99.90;;;;;;2057272;28;20186;-62
2020/12/02 02:05:16;;;;;;;50.05;13.00;;;0.90;99.90;;;;;;2065042;28;20220;-61
2020/12/02 02:06:27;;;;;;;92.00;17.23;;;0.90;99.90;;;;;;2056832;28;20280;-61
2020/12/02 02:07:29;;;;;;;53.72;12.18;;;0.90;99.90;;;;;;2056766;28;20198;-61
2020/12/02 02:08:33;;;;;;;58.00;12.57;;;0.90;99.90;;;;;;2057458;28;20225;-61
2020/12/02 02:09:34;;;;;;;45.92;12.73;;;0.90;99.90;;;;;;2056762;28;20208;-61
2020/12/02 02:10:40;;;;;;;25.92;9.93;;;0.90;99.90;;;;;;2057313;28;20293;-63
2020/12/02 02:11:49;;;;;;;51.10;11.02;;;0.90;99.90;;;;;;2057218;28;20284;-61
2020/12/02 02:12:56;;;;;;;34.65;10.50;;;0.90;99.90;;;;;;2056726;28;20708;-61
2020/12/02 02:14:53;;;;;;;25.52;8.73;;;0.90;99.90;;;;;;2056639;28;20549;-61
2020/12/02 02:16:08;;;;;;;25.05;9.10;;;0.90;99.90;;;;;;2056755;28;20199;-61
2020/12/02 02:17:08;;;;;;;39.25;12.23;;;0.90;99.90;;;;;;2057196;28;20292;-60
2020/12/02 02:18:26;;;;;;;32.43;10.13;;;0.90;99.90;;;;;;2057333;28;20624;-61
2020/12/02 02:19:26;;;;;;;33.30;9.93;;;0.90;99.90;;;;;;2057437;28;20197;-61
2020/12/02 02:20:45;;;;;;;34.17;10.70;;;0.90;99.90;;;;;;2057095;28;20186;-61
2020/12/02 02:21:51;;;;;;;41.55;10.70;;;0.90;99.90;;;;;;2057001;28;20171;-62
2020/12/02 02:22:52;;;;;;;25.00;8.98;;;0.90;99.90;;;;;;2057302;28;20172;-61
2020/12/02 02:23:53;;;;;;;59.10;12.47;;;0.90;99.90;;;;;;2057296;28;20676;-62
2020/12/02 02:24:55;;;;;;;61.30;14.53;;;0.90;99.90;;;;;;2057205;28;20185;-61
2020/12/02 02:26:14;;;;;;;62.17;14.05;;;0.90;99.90;;;;;;2056938;28;20192;-62
2020/12/02 02:27:18;;;;;;;29.27;10.48;;;0.80;99.90;;;;;;2057338;28;20240;-62
2020/12/02 02:28:19;;;;;;;37.15;11.07;;;0.80;99.90;;;;;;2064577;28;20689;-61
2020/12/02 02:29:31;;;;;;;54.90;13.07;;;0.80;99.90;;;;;;2056670;28;20189;-62
2020/12/02 02:30:33;;;;;;;22.08;8.98;;;0.80;99.90;;;;;;2056601;28;20191;-62
2020/12/02 02:31:41;;;;;;;27.27;10.63;;;0.80;99.90;;;;;;2064263;28;20284;-62
2020/12/02 02:32:42;;;;;;;36.25;11.68;;;0.70;99.90;;;;;;2056665;28;20257;-62
2020/12/02 02:33:44;;;;;;;64.20;14.07;;;0.70;99.90;;;;;;2056739;28;20179;-61
2020/12/02 02:34:52;;;;;;;40.78;10.95;;;0.80;99.90;;;;;;2064397;28;20652;-62
2020/12/02 02:35:53;;;;;;;38.55;11.63;;;0.90;99.90;;;;;;2057272;28;20546;-61
2020/12/02 02:36:55;;;;;;;37.88;11.18;;;0.80;99.90;;;;;;2056926;28;20608;-64
2020/12/02 02:37:55;;;;;;;29.67;10.77;;;0.80;99.90;;;;;;2057363;28;20181;-62
2020/12/02 02:38:57;;;;;;;34.00;11.57;;;0.80;99.90;;;;;;2057839;28;20186;-61
2020/12/02 02:40:00;;;;;;;46.28;13.27;;;0.80;99.90;;;;;;2065059;28;20174;-61
2020/12/02 02:41:01;;;;;;;49.88;12.85;;;0.80;99.90;;;;;;2064457;28;20190;-59
2020/12/02 02:42:34;;;;;;;37.43;11.63;;;0.80;99.90;;;;;;2057105;28;20888;-61
2020/12/02 02:43:37;;;;;;;23.60;10.10;;;0.90;99.90;;;;;;2056987;28;20252;-61
2020/12/02 02:44:38;;;;;;;19.40;8.32;;;0.90;99.90;;;;;;2057232;28;20198;-60
2020/12/02 02:45:38;;;;;;;31.80;11.03;;;0.90;99.90;;;;;;2057331;28;20196;-62
2020/12/02 02:46:40;;;;;;;26.27;9.97;;;0.90;99.90;;;;;;2057050;28;20213;-61
2020/12/02 02:47:41;;;;;;;23.23;9.20;;;0.80;99.90;;;;;;2056423;28;20281;-60
2020/12/02 02:48:42;;;;;;;16.92;9.40;;;0.80;99.90;;;;;;2056419;28;20465;-61
2020/12/02 02:49:43;;;;;;;16.00;7.67;;;0.90;99.90;;;;;;2057287;28;20245;-62
2020/12/02 02:50:44;;;;;;;72.00;13.77;;;0.90;99.90;;;;;;2056991;28;20197;-60
2020/12/02 02:51:44;;;;;;;23.30;9.00;;;0.90;99.90;;;;;;2056996;28;20182;-61
2020/12/02 02:52:45;;;;;;;33.50;9.10;;;0.80;99.90;;;;;;2056945;28;20187;-60
2020/12/02 02:53:47;;;;;;;24.17;9.50;;;0.90;99.90;;;;;;2056994;28;20265;-60
2020/12/02 02:54:47;;;;;;;44.97;12.50;;;0.80;99.90;;;;;;2057217;28;20181;-60
2020/12/02 02:55:49;;;;;;;19.60;8.07;;;0.80;99.90;;;;;;2057153;28;20820;-61
2020/12/02 02:56:50;;;;;;;22.20;8.57;;;0.80;99.90;;;;;;2057433;28;20217;-61
2020/12/02 02:57:51;;;;;;;30.03;10.13;;;0.80;99.90;;;;;;2057344;28;20190;-61
2020/12/02 02:58:52;;;;;;;48.05;13.45;;;0.70;99.90;;;;;;2057375;28;20231;-61
2020/12/02 02:59:53;;;;;;;18.63;8.37;;;0.70;99.90;;;;;;2057242;28;20198;-61
2020/12/02 03:00:58;;;;;;;21.48;9.60;;;0.70;99.90;;;;;;2057054;28;20190;-61
2020/12/02 03:01:59;;;;;;;36.33;9.07;;;0.80;99.90;;;;;;2057189;28;20563;-62
2020/12/02 03:03:00;;;;;;;22.10;8.90;;;0.70;99.90;;;;;;2057270;28;20186;-62
2020/12/02 03:04:02;;;;;;;33.00;10.52;;;0.70;99.90;;;;;;2057083;28;20285;-60
2020/12/02 03:05:06;;;;;;;30.27;9.90;;;0.70;99.90;;;;;;2057268;28;20198;-62
2020/12/02 03:06:08;;;;;;;20.67;8.93;;;0.70;99.90;;;;;;2057103;28;20190;-61
2020/12/02 03:07:17;;;;;;;17.23;8.05;;;0.70;99.90;;;;;;2055116;28;20259;-61
2020/12/02 03:08:18;;;;;;;23.17;9.50;;;0.60;99.90;;;;;;2057128;28;20197;-62
2020/12/02 03:09:18;;;;;;;18.70;9.10;;;0.60;99.90;;;;;;2056735;28;20857;-61
2020/12/02 03:10:25;;;;;;;42.77;10.53;;;0.60;99.90;;;;;;2057106;28;20186;-61
2020/12/02 03:11:25;;;;;;;20.23;8.32;;;0.60;99.90;;;;;;2056667;28;20713;-61
2020/12/02 03:12:28;;;;;;;20.40;8.37;;;0.60;99.90;;;;;;2056275;28;20197;-61
2020/12/02 03:13:51;;;;;;;14.68;7.40;;;0.60;99.90;;;;;;2056197;28;20194;-62
2020/12/02 03:14:52;;;;;;;15.70;7.90;;;0.60;99.90;;;;;;2049098;28;20187;-61
2020/12/02 03:15:53;;;;;;;18.30;8.63;;;0.50;99.90;;;;;;2048496;29;20383;-62
2020/12/02 03:16:55;;;;;;;24.60;10.23;;;0.60;99.90;;;;;;2048174;29;20211;-61
2020/12/02 03:17:58;;;;;;;22.90;9.45;;;0.60;99.90;;;;;;2056518;28;20186;-62
2020/12/02 03:19:07;;;;;;;38.38;12.63;;;0.70;99.90;;;;;;2064352;28;20185;-60
2020/12/02 03:20:18;;;;;;;17.63;9.57;;;0.80;99.90;;;;;;2062263;28;20162;-60
2020/12/02 03:21:20;;;;;;;20.92;9.60;;;0.70;99.90;;;;;;2047759;28;20286;-60
2020/12/02 03:22:23;;;;;;;20.67;9.23;;;0.70;99.90;;;;;;2048104;28;20186;-60
2020/12/02 03:23:25;;;;;;;24.10;8.85;;;0.70;99.90;;;;;;2048134;29;20195;-62
2020/12/02 03:24:27;;;;;;;16.60;8.10;;;0.70;99.90;;;;;;2040491;29;20773;-61
2020/12/02 03:25:33;;;;;;;25.58;9.25;;;0.70;99.90;;;;;;2048191;29;20835;-61
2020/12/02 03:26:34;;;;;;;23.88;9.00;;;0.70;99.90;;;;;;2048795;29;20209;-62
2020/12/02 03:27:34;;;;;;;25.83;9.15;;;0.80;99.90;;;;;;2048848;29;20214;-61
2020/12/02 03:28:35;;;;;;;24.47;10.27;;;0.80;99.90;;;;;;2048989;28;20217;-59
2020/12/02 03:29:36;;;;;;;25.50;10.67;;;0.70;99.90;;;;;;2048935;28;20563;-60
2020/12/02 03:30:38;;;;;;;24.50;9.10;;;0.70;99.90;;;;;;2049002;28;20195;-60
2020/12/02 03:31:40;;;;;;;14.40;8.18;;;0.80;99.90;;;;;;2048560;28;20190;-61
2020/12/02 03:32:40;;;;;;;66.47;14.25;;;0.70;99.90;;;;;;2048996;29;20193;-60
2020/12/02 03:33:41;;;;;;;32.80;11.50;;;0.80;99.90;;;;;;2048891;29;20265;-61
2020/12/02 03:34:42;;;;;;;14.77;8.07;;;0.80;99.90;;;;;;2048962;28;20663;-61
2020/12/02 03:35:43;;;;;;;19.50;9.23;;;0.70;99.90;;;;;;2048878;28;20462;-61
2020/12/02 03:36:44;;;;;;;30.25;10.75;;;0.70;99.90;;;;;;2048901;28;20644;-61
2020/12/02 03:37:45;;;;;;;18.15;9.13;;;0.80;99.90;;;;;;2049098;29;20211;-61
2020/12/02 03:38:47;;;;;;;17.17;9.17;;;0.80;99.90;;;;;;2049207;29;20174;-60
2020/12/02 03:39:48;;;;;;;18.92;7.43;;;0.80;99.90;;;;;;2049119;28;20818;-61
2020/12/02 03:40:49;;;;;;;18.47;8.00;;;0.90;99.90;;;;;;2056243;28;20194;-62
2020/12/02 03:41:49;;;;;;;19.53;8.10;;;0.80;99.90;;;;;;2056266;28;20182;-60
2020/12/02 03:42:51;;;;;;;19.83;9.13;;;0.80;99.90;;;;;;2048970;29;20202;-61
2020/12/02 03:43:52;;;;;;;19.67;8.63;;;0.80;99.90;;;;;;2049028;28;20193;-58
2020/12/02 03:44:52;;;;;;;16.87;8.07;;;0.80;99.90;;;;;;2048800;29;20274;-60
2020/12/02 03:45:53;;;;;;;19.53;7.13;;;0.80;99.90;;;;;;2048928;29;20183;-60
2020/12/02 03:46:54;;;;;;;18.17;8.33;;;0.80;99.90;;;;;;2048648;28;20199;-60
2020/12/02 03:47:55;;;;;;;31.50;8.67;;;0.80;99.90;;;;;;2056157;28;20664;-60
2020/12/02 03:48:55;;;;;;;33.37;7.33;;;0.80;99.90;;;;;;2056007;28;20182;-59
2020/12/02 03:49:56;;;;;;;11.63;6.47;;;0.80;99.90;;;;;;2048926;29;20176;-60
2020/12/02 03:50:57;;;;;;;18.50;6.93;;;0.80;99.90;;;;;;2048405;29;20313;-60
2020/12/02 03:51:57;;;;;;;10.30;6.13;;;0.70;99.90;;;;;;2048894;29;20176;-60
2020/12/02 03:52:58;;;;;;;9.07;5.93;;;0.70;99.90;;;;;;2048829;28;20185;-61
2020/12/02 03:54:00;;;;;;;10.67;5.63;;;0.70;99.90;;;;;;2048723;28;20186;-61
2020/12/02 03:55:00;;;;;;;11.15;6.88;;;0.70;99.90;;;;;;2048758;29;20250;-61
2020/12/02 03:56:01;;;;;;;16.20;6.90;;;0.70;99.90;;;;;;2048964;28;20187;-61
2020/12/02 03:57:02;;;;;;;15.37;6.17;;;0.70;99.90;;;;;;2048768;29;20205;-60
2020/12/02 03:58:04;;;;;;;14.32;5.97;;;0.70;99.90;;;;;;2048771;29;20175;-62
2020/12/02 03:59:05;;;;;;;17.42;7.15;;;0.70;99.90;;;;;;2048605;29;20615;-62
2020/12/02 04:00:10;;;;;;;18.40;7.30;;;0.70;99.90;;;;;;2048575;29;20183;-62
2020/12/02 04:01:12;;;;;;;21.38;6.65;;;0.70;99.90;;;;;;2048421;28;20249;-62
2020/12/02 04:02:12;;;;;;;25.70;7.85;;;0.80;99.90;;;;;;2048775;28;20187;-61
2020/12/02 04:03:13;;;;;;;17.87;6.87;;;0.80;99.90;;;;;;2048739;28;20658;-61
2020/12/02 04:04:14;;;;;;;14.07;7.00;;;0.80;99.90;;;;;;2048740;29;20269;-61
2020/12/02 04:05:15;;;;;;;31.60;9.57;;;0.70;99.90;;;;;;2048560;28;20564;-62
2020/12/02 04:06:16;;;;;;;21.48;7.30;;;0.70;99.90;;;;;;2048693;28;20238;-61
2020/12/02 04:07:17;;;;;;;21.80;7.50;;;0.70;99.90;;;;;;2048642;28;20670;-61
2020/12/02 04:08:18;;;;;;;16.00;6.63;;;0.70;99.90;;;;;;2048649;29;20285;-62
2020/12/02 04:09:18;;;;;;;17.67;6.63;;;0.70;99.90;;;;;;2048622;29;20283;-61
2020/12/02 04:10:19;;;;;;;19.37;7.53;;;0.70;99.90;;;;;;2048809;28;20194;-60
2020/12/02 04:11:20;;;;;;;84.73;10.83;;;0.80;99.90;;;;;;2048164;29;20740;-60
2020/12/02 04:12:21;;;;;;;77.53;11.93;;;0.80;99.90;;;;;;2048707;28;20178;-61
2020/12/02 04:13:21;;;;;;;43.67;7.20;;;0.70;99.90;;;;;;2048563;29;20236;-60
2020/12/02 04:14:22;;;;;;;37.80;8.93;;;0.70;99.90;;;;;;2048792;28;20190;-61
2020/12/02 04:15:23;;;;;;;22.07;7.50;;;0.70;99.90;;;;;;2048503;29;20191;-60
2020/12/02 04:16:25;;;;;;;19.98;7.78;;;0.60;99.90;;;;;;2048233;29;20922;-60
2020/12/02 04:17:26;;;;;;;23.80;8.23;;;0.60;99.90;;;;;;2048626;28;20182;-60
2020/12/02 04:18:27;;;;;;;16.90;7.07;;;0.60;99.90;;;;;;2048700;28;20213;-61
2020/12/02 04:19:28;;;;;;;19.10;7.70;;;0.70;99.90;;;;;;2048632;29;20190;-61
2020/12/02 04:20:29;;;;;;;32.80;7.63;;;0.70;99.90;;;;;;2048712;29;20217;-60
2020/12/02 04:21:30;;;;;;;44.97;9.13;;;0.70;99.90;;;;;;2048530;29;20179;-61
2020/12/02 04:22:31;;;;;;;26.20;6.63;;;0.70;99.90;;;;;;2048497;28;20863;-60
2020/12/02 04:23:32;;;;;;;23.47;7.67;;;0.70;99.90;;;;;;2048699;28;20190;-61
2020/12/02 04:24:33;;;;;;;14.20;6.13;;;0.60;99.90;;;;;;2048745;29;20240;-59
2020/12/02 04:25:33;;;;;;;39.67;9.40;;;0.60;99.90;;;;;;2048730;28;20727;-62
2020/12/02 04:26:34;;;;;;;18.30;6.00;;;0.60;99.90;;;;;;2048605;28;20198;-61
2020/12/02 04:27:35;;;;;;;28.60;6.63;;;0.60;99.90;;;;;;2048631;28;20195;-61
2020/12/02 04:28:35;;;;;;;28.63;7.60;;;0.70;99.90;;;;;;2048509;28;20182;-61
2020/12/02 04:29:36;;;;;;;39.57;7.93;;;0.70;99.90;;;;;;2048735;28;20242;-60
2020/12/02 04:30:38;;;;;;;68.57;10.40;;;0.70;99.90;;;;;;2048617;29;20193;-61
2020/12/02 04:31:38;;;;;;;16.40;6.60;;;0.70;99.90;;;;;;2048388;29;20187;-61
2020/12/02 04:32:39;;;;;;;32.60;8.33;;;0.80;99.90;;;;;;2048519;28;20685;-61
2020/12/02 04:33:40;;;;;;;16.67;5.77;;;0.80;99.90;;;;;;2049819;29;20180;-61
2020/12/02 04:34:41;;;;;;;28.57;8.57;;;0.70;99.90;;;;;;2050258;29;20775;-60
2020/12/02 04:35:43;;;;;;;34.23;7.53;;;0.70;99.90;;;;;;2057494;28;20430;-62
2020/12/02 04:36:50;;;;;;;15.95;6.43;;;0.70;99.90;;;;;;2057360;28;20292;-61
2020/12/02 04:37:51;;;;;;;19.02;6.00;;;0.70;99.90;;;;;;2050266;28;20251;-61
2020/12/02 04:38:51;;;;;;;24.03;6.20;;;0.60;99.90;;;;;;2050064;29;20187;-61
2020/12/02 04:39:52;;;;;;;24.13;7.50;;;0.60;99.90;;;;;;2050106;29;20191;-61
2020/12/02 04:40:53;;;;;;;16.20;5.70;;;0.70;99.90;;;;;;2049880;29;20189;-60
2020/12/02 04:41:53;;;;;;;18.07;7.03;;;0.60;99.90;;;;;;2050188;29;20690;-61
2020/12/02 04:43:20;;;;;;;24.87;7.83;;;0.70;99.90;;;;;;2050113;29;20195;-61
2020/12/02 04:44:21;;;;;;;16.38;7.40;;;0.70;99.90;;;;;;2057288;28;20177;-61
2020/12/02 04:45:22;;;;;;;24.23;8.68;;;0.60;99.90;;;;;;2057403;28;20192;-60
2020/12/02 04:46:31;;;;;;;19.97;7.00;;;0.60;99.90;;;;;;2049367;29;20180;-61
2020/12/02 04:47:40;;;;;;;29.38;7.88;;;0.70;99.90;;;;;;2050582;28;20482;-61
2020/12/02 04:48:44;;;;;;;27.27;7.28;;;0.80;99.90;;;;;;2056578;28;20190;-61
2020/12/02 04:49:47;;;;;;;41.28;7.47;;;0.80;99.90;;;;;;2049959;28;20193;-61
2020/12/02 04:50:48;;;;;;;14.48;5.53;;;0.80;99.90;;;;;;2049969;28;20666;-61
2020/12/02 04:51:54;;;;;;;19.90;6.00;;;0.80;99.90;;;;;;2057433;28;20211;-62
2020/12/02 04:53:17;;;;;;;39.20;8.02;;;0.80;99.90;;;;;;2065639;28;20172;-59
2020/12/02 04:54:18;;;;;;;41.22;9.93;;;0.80;99.90;;;;;;2059591;28;20171;-62
2020/12/02 04:55:19;;;;;;;70.53;15.37;;;0.70;99.90;;;;;;2049831;28;20210;-59
2020/12/02 04:56:20;;;;;;;35.40;8.50;;;0.60;99.90;;;;;;2050022;29;20194;-61
2020/12/02 04:57:21;;;;;;;37.00;9.25;;;0.60;99.90;;;;;;2050017;29;20218;-61
2020/12/02 04:58:33;;;;;;;69.03;12.70;;;0.60;99.90;;;;;;2050029;28;20186;-61
2020/12/02 04:59:42;;;;;;;146.25;17.13;;;0.60;99.90;;;;;;2050086;28;20190;-61
2020/12/02 05:00:43;;;;;;;181.20;21.42;;;0.40;99.90;;;;;;2049813;29;20180;-60
2020/12/02 05:01:52;;;;;;;93.80;15.90;;;0.40;99.90;;;;;;2049822;28;20182;-60
2020/12/02 05:03:04;;;;;;;175.07;14.35;;;0.50;99.90;;;;;;2050053;29;20178;-60
2020/12/02 05:04:24;;;;;;;387.27;75.75;;;0.50;99.90;;;;;;2050117;29;20168;-62
2020/12/02 05:05:25;;;;;;;119.85;28.58;;;0.50;99.90;;;;;;2050104;28;20199;-62
2020/12/02 05:07:01;;;;;;;147.93;21.37;;;0.50;99.90;;;;;;2049907;29;20198;-62
2020/12/02 05:08:27;;;;;;;172.93;21.33;;;0.50;99.90;;;;;;2046729;29;20261;-62
2020/12/02 05:09:27;;;;;;;58.60;10.18;;;0.50;99.90;;;;;;2049996;28;20183;-61
2020/12/02 05:10:35;;;;;;;160.77;14.10;;;0.50;99.90;;;;;;2049879;29;20785;-61
2020/12/02 05:11:38;;;;;;;100.57;10.27;;;0.40;99.90;;;;;;2049367;29;20236;-62
2020/12/02 05:12:43;;;;;;;133.40;15.35;;;0.40;99.90;;;;;;2057191;28;20183;-61
2020/12/02 05:14:04;;;;;;;51.80;8.00;;;0.50;99.90;;;;;;2049375;28;20190;-62
2020/12/02 05:15:24;;;;;;;143.45;15.57;;;0.50;99.90;;;;;;2049520;29;20218;-61
2020/12/02 05:16:25;;;;;;;154.52;13.20;;;0.50;99.90;;;;;;2049545;28;20190;-62
2020/12/02 05:17:29;;;;;;;123.60;12.23;;;0.50;99.90;;;;;;2049754;29;20172;-61
2020/12/02 05:18:30;;;;;;;96.70;10.93;;;0.50;99.90;;;;;;2049777;29;20174;-62
2020/12/02 05:19:31;;;;;;;93.90;10.47;;;0.50;99.90;;;;;;2049843;29;20604;-60
2020/12/02 05:20:32;;;;;;;113.30;13.57;;;0.50;99.90;;;;;;2077851;23;20257;-64
2020/12/02 05:21:43;;;;;;;78.22;10.07;;;0.60;99.90;;;;;;2088536;28;20578;-64
2020/12/02 05:22:50;;;;;;;113.05;11.95;;;0.60;99.90;;;;;;2096274;28;20667;-64
2020/12/02 05:24:18;;;;;;;103.13;14.90;;;0.60;99.90;;;;;;2098721;28;20186;-65
2020/12/02 05:25:30;;;;;;;227.15;25.05;;;0.50;99.90;;;;;;2089618;28;20217;-65
2020/12/02 05:26:34;;;;;;;240.05;28.08;;;0.60;99.90;;;;;;2091523;28;20174;-65
2020/12/02 05:27:36;;;;;;;136.45;19.13;;;0.50;99.90;;;;;;2097708;28;20199;-64
2020/12/02 05:28:40;;;;;;;82.22;12.90;;;0.50;99.90;;;;;;2089789;28;20398;-65
2020/12/02 05:30:16;;;;;;;93.18;12.02;;;0.50;99.90;;;;;;2098340;28;20248;-65
2020/12/02 05:31:32;;;;;;;59.33;8.77;;;0.50;99.90;;;;;;2096525;28;20210;-64
2020/12/02 05:32:32;;;;;;;76.30;10.38;;;0.40;99.90;;;;;;2106358;28;20217;-64
2020/12/02 05:33:34;;;;;;;164.63;15.43;;;0.40;99.90;;;;;;2097747;28;20191;-64
2020/12/02 05:34:35;;;;;;;81.13;11.60;;;0.40;99.90;;;;;;2089659;28;20216;-65
2020/12/02 05:35:37;;;;;;;118.33;15.40;;;0.50;99.90;;;;;;2090156;28;20551;-64
2020/12/02 05:36:43;;;;;;;281.88;21.70;;;0.50;99.90;;;;;;2106182;28;20169;-64
2020/12/02 05:37:53;;;;;;;215.32;15.95;;;0.50;99.90;;;;;;2096990;28;20695;-64